createdAt,value
2022-12-03T00:01:15.264Z,101402.72
2022-12-03T00:03:41.999Z,101401.22
2022-12-03T00:06:08.654Z,101398.19
2022-12-03T00:08:35.186Z,101404.88
2022-12-03T00:11:01.703Z,101401.19
2022-12-03T00:13:28.523Z,101396.75
2022-12-03T00:15:55.070Z,101396.84
2022-12-03T00:18:21.986Z,101396.72
2022-12-03T00:20:48.829Z,101410.13
2022-12-03T00:23:15.826Z,101400.63
2022-12-03T00:25:42.378Z,101405.47
2022-12-03T00:28:10.238Z,101402.47
2022-12-03T00:30:36.849Z,101393.53
2022-12-03T00:33:03.411Z,101387.59
2022-12-03T00:35:30.361Z,101397.59
2022-12-03T00:37:56.913Z,101387.44
2022-12-03T00:40:23.495Z,101393.66
2022-12-03T00:42:50.028Z,101383.41
2022-12-03T00:45:16.725Z,101391.41
2022-12-03T00:47:43.297Z,101389.13
2022-12-03T00:50:10.333Z,101395.72
2022-12-03T00:52:36.878Z,101396.38
2022-12-03T00:55:04.936Z,101388.53
2022-12-03T00:57:31.485Z,101390.50
2022-12-03T00:59:57.993Z,101384.56
2022-12-03T01:02:24.666Z,101388.31
2022-12-03T01:04:51.712Z,101391.19
2022-12-03T01:07:18.434Z,101394.81
2022-12-03T01:09:45.009Z,101400.06
2022-12-03T01:12:11.947Z,101394.63
2022-12-03T01:14:38.482Z,101399.47
2022-12-03T01:17:05.073Z,101392.53
2022-12-03T01:19:31.616Z,101394.66
2022-12-03T01:21:58.099Z,101396.47
2022-12-03T01:24:24.929Z,101402.94
2022-12-03T01:26:51.528Z,101400.88
2022-12-03T01:29:18.412Z,101401.72
2022-12-03T01:32:03.605Z,101401.78
2022-12-03T01:34:30.173Z,101398.31
2022-12-03T01:36:56.809Z,101398.03
2022-12-03T01:39:23.747Z,101394.22
2022-12-03T01:41:52.444Z,101396.69
2022-12-03T01:44:28.914Z,101405.44
2022-12-03T01:46:58.532Z,101390.28
2022-12-03T01:49:29.635Z,101395.84
2022-12-03T01:51:57.778Z,101385.47
2022-12-03T01:54:38.037Z,101393.66
2022-12-03T01:57:13.985Z,101393.75
2022-12-03T01:59:40.705Z,101400.03
2022-12-03T02:02:20.966Z,101402.03
2022-12-03T02:04:47.724Z,101393.06
2022-12-03T02:07:20.147Z,101396.97
2022-12-03T02:09:46.900Z,101397.19
2022-12-03T02:12:17.523Z,101394.31
2022-12-03T02:14:44.475Z,101393.81
2022-12-03T02:17:12.198Z,101388.53
2022-12-03T02:19:39.156Z,101395.72
2022-12-03T02:22:30.478Z,101387.41
2022-12-03T02:25:14.210Z,101392.94
2022-12-03T02:27:41.544Z,101393.09
2022-12-03T02:30:09.412Z,101390.38
2022-12-03T02:32:36.943Z,101387.53
2022-12-03T02:35:04.103Z,101385.56
2022-12-03T02:37:35.074Z,101385.19
2022-12-03T02:40:07.142Z,101386.00
2022-12-03T02:42:36.802Z,101379.44
2022-12-03T02:45:11.141Z,101379.28
2022-12-03T02:47:44.530Z,101376.78
2022-12-03T02:50:15.100Z,101384.66
2022-12-03T02:52:44.615Z,101380.28
2022-12-03T02:55:13.553Z,101379.16
2022-12-03T02:57:40.855Z,101375.09
2022-12-03T03:00:09.402Z,101373.81
2022-12-03T03:02:37.284Z,101374.25
2022-12-03T03:05:07.287Z,101373.88
2022-12-03T03:07:35.544Z,101373.34
2022-12-03T03:10:04.919Z,101380.56
2022-12-03T03:12:34.805Z,101372.34
2022-12-03T03:15:07.086Z,101368.53
2022-12-03T03:17:34.058Z,101367.31
2022-12-03T03:20:01.306Z,101356.56
2022-12-03T03:22:36.163Z,101364.84
2022-12-03T03:25:04.499Z,101352.44
2022-12-03T03:27:31.314Z,101363.06
2022-12-03T03:29:59.294Z,101358.56
2022-12-03T03:32:28.050Z,101354.44
2022-12-03T03:34:56.175Z,101363.94
2022-12-03T03:37:23.994Z,101354.72
2022-12-03T03:39:51.019Z,101351.81
2022-12-03T03:42:17.803Z,101357.16
2022-12-03T03:44:44.595Z,101355.44
2022-12-03T03:47:12.640Z,101350.28
2022-12-03T03:49:39.524Z,101358.34
2022-12-03T03:52:06.393Z,101363.91
2022-12-03T03:54:33.143Z,101352.25
2022-12-03T03:56:59.802Z,101350.97
2022-12-03T03:59:26.411Z,101340.13
2022-12-03T04:01:52.926Z,101343.44
2022-12-03T04:04:22.096Z,101344.34
2022-12-03T04:06:49.042Z,101350.38
2022-12-03T04:09:16.105Z,101342.69
2022-12-03T04:12:01.438Z,101344.66
2022-12-03T04:14:28.045Z,101340.00
2022-12-03T04:16:54.599Z,101337.56
2022-12-03T04:19:21.314Z,101342.47
2022-12-03T04:22:06.580Z,101344.22
2022-12-03T04:24:33.263Z,101344.03
2022-12-03T04:27:18.444Z,101343.16
2022-12-03T04:29:45.188Z,101338.16
2022-12-03T04:32:30.334Z,101330.38
2022-12-03T04:35:15.822Z,101340.97
2022-12-03T04:37:42.887Z,101335.78
2022-12-03T04:40:30.200Z,101325.13
2022-12-03T04:42:57.091Z,101318.03
2022-12-03T04:45:23.954Z,101322.81
2022-12-03T04:47:50.557Z,101320.47
2022-12-03T04:50:17.225Z,101328.84
2022-12-03T04:52:43.909Z,101332.22
2022-12-03T04:55:10.410Z,101325.06
2022-12-03T04:57:36.904Z,101333.84
2022-12-03T05:00:05.273Z,101331.09
2022-12-03T05:02:32.030Z,101326.78
2022-12-03T05:04:58.655Z,101332.88
2022-12-03T05:07:26.078Z,101322.13
2022-12-03T05:09:52.620Z,101329.72
2022-12-03T05:12:19.179Z,101329.97
2022-12-03T05:14:45.726Z,101324.16
2022-12-03T05:17:12.339Z,101335.66
2022-12-03T05:20:14.286Z,101328.13
2022-12-03T05:22:41.117Z,101335.47
2022-12-03T05:25:08.422Z,101333.19
2022-12-03T05:27:35.064Z,101331.91
2022-12-03T05:30:01.868Z,101335.47
2022-12-03T05:32:28.409Z,101329.94
2022-12-03T05:34:55.284Z,101328.75
2022-12-03T05:37:22.091Z,101326.19
2022-12-03T05:39:48.612Z,101332.22
2022-12-03T05:42:33.668Z,101327.75
2022-12-03T05:45:00.280Z,101325.75
2022-12-03T05:47:26.844Z,101323.31
2022-12-03T05:49:53.413Z,101324.94
2022-12-03T05:52:19.936Z,101323.56
2022-12-03T05:54:46.580Z,101328.63
2022-12-03T05:57:13.224Z,101325.47
2022-12-03T05:59:39.730Z,101330.38
2022-12-03T06:02:07.052Z,101324.94
2022-12-03T06:04:33.694Z,101317.81
2022-12-03T06:07:00.260Z,101317.31
2022-12-03T06:09:26.831Z,101318.66
2022-12-03T06:11:54.106Z,101312.09
2022-12-03T06:14:21.214Z,101318.06
2022-12-03T06:16:47.747Z,101318.59
2022-12-03T06:19:14.394Z,101318.38
2022-12-03T06:21:40.923Z,101309.94
2022-12-03T06:24:07.684Z,101305.41
2022-12-03T06:26:34.181Z,101300.28
2022-12-03T06:29:00.732Z,101305.97
2022-12-03T06:31:27.328Z,101306.97
2022-12-03T06:33:53.893Z,101308.16
2022-12-03T06:36:23.218Z,101307.19
2022-12-03T06:38:50.118Z,101306.31
2022-12-03T06:41:16.641Z,101304.19
2022-12-03T06:43:44.118Z,101314.34
2022-12-03T06:46:11.037Z,101316.78
2022-12-03T06:48:37.633Z,101330.75
2022-12-03T06:51:04.472Z,101311.78
2022-12-03T06:53:31.213Z,101314.59
2022-12-03T06:55:57.809Z,101302.88
2022-12-03T06:58:24.670Z,101313.13
2022-12-03T07:00:51.185Z,101311.13
2022-12-03T07:03:18.048Z,101316.44
2022-12-03T07:05:44.621Z,101310.78
2022-12-03T07:08:11.377Z,101313.44
2022-12-03T07:10:37.938Z,101307.09
2022-12-03T07:13:04.746Z,101307.91
2022-12-03T07:15:31.249Z,101311.13
2022-12-03T07:17:57.962Z,101305.41
2022-12-03T07:20:24.619Z,101308.03
2022-12-03T07:22:51.287Z,101310.13
2022-12-03T07:25:22.900Z,101297.72
2022-12-03T07:27:50.206Z,101309.16
2022-12-03T07:30:17.443Z,101311.13
2022-12-03T07:32:44.030Z,101312.84
2022-12-03T07:35:10.718Z,101307.13
2022-12-03T07:37:37.446Z,101317.38
2022-12-03T07:40:05.023Z,101314.31
2022-12-03T07:42:31.690Z,101322.53
2022-12-03T07:44:58.234Z,101319.19
2022-12-03T07:47:24.973Z,101318.75
2022-12-03T07:49:51.457Z,101316.19
2022-12-03T07:52:18.336Z,101314.94
2022-12-03T07:54:44.933Z,101307.41
2022-12-03T07:57:11.434Z,101315.50
2022-12-03T07:59:38.096Z,101314.06
2022-12-03T08:02:04.934Z,101311.47
2022-12-03T08:04:31.495Z,101313.13
2022-12-03T08:06:58.252Z,101312.72
2022-12-03T08:09:25.004Z,101308.03
2022-12-03T08:11:51.947Z,101302.66
2022-12-03T08:14:19.937Z,101305.25
2022-12-03T08:16:47.828Z,101310.66
2022-12-03T08:19:17.137Z,101307.19
2022-12-03T08:21:44.123Z,101306.13
2022-12-03T08:24:13.722Z,101301.34
2022-12-03T08:26:41.469Z,101307.34
2022-12-03T08:29:10.245Z,101305.53
2022-12-03T08:31:37.050Z,101306.50
2022-12-03T08:34:24.190Z,101303.19
2022-12-03T08:36:55.919Z,101302.81
2022-12-03T08:39:30.876Z,101300.25
2022-12-03T08:42:26.822Z,101307.72
2022-12-03T08:44:55.259Z,101306.28
2022-12-03T08:47:23.981Z,101306.69
2022-12-03T08:49:57.896Z,101304.50
2022-12-03T08:52:31.421Z,101308.69
2022-12-03T08:54:58.741Z,101309.53
2022-12-03T08:57:30.888Z,101318.53
2022-12-03T09:00:03.958Z,101312.69
2022-12-03T09:02:34.377Z,101312.25
2022-12-03T09:05:29.208Z,101319.66
2022-12-03T09:07:55.898Z,101318.75
2022-12-03T09:10:22.760Z,101320.03
2022-12-03T09:12:49.350Z,101315.50
2022-12-03T09:15:15.974Z,101318.31
2022-12-03T09:17:42.555Z,101321.91
2022-12-03T09:20:09.647Z,101312.25
2022-12-03T09:22:36.605Z,101323.72
2022-12-03T09:25:21.939Z,101324.03
2022-12-03T09:27:49.690Z,101323.47
2022-12-03T09:30:16.672Z,101322.44
2022-12-03T09:32:43.548Z,101330.00
2022-12-03T09:35:10.052Z,101320.88
2022-12-03T09:37:36.641Z,101315.28
2022-12-03T09:40:03.947Z,101314.97
2022-12-03T09:42:30.826Z,101316.16
2022-12-03T09:44:57.436Z,101313.38
2022-12-03T09:47:25.068Z,101311.00
2022-12-03T09:49:52.945Z,101314.31
2022-12-03T09:52:25.840Z,101309.69
2022-12-03T09:54:53.241Z,101307.88
2022-12-03T09:57:20.241Z,101304.97
2022-12-03T09:59:46.995Z,101305.88
2022-12-03T10:02:22.533Z,101299.75
2022-12-03T10:04:49.689Z,101298.75
2022-12-03T10:07:16.825Z,101281.66
2022-12-03T10:09:43.577Z,101288.53
2022-12-03T10:12:15.000Z,101293.19
2022-12-03T10:14:42.858Z,101289.75
2022-12-03T10:17:11.453Z,101284.09
2022-12-03T10:19:39.624Z,101288.50
2022-12-03T10:22:06.309Z,101284.81
2022-12-03T10:24:34.822Z,101288.91
2022-12-03T10:27:04.162Z,101286.56
2022-12-03T10:29:36.171Z,101277.66
2022-12-03T10:32:05.065Z,101276.28
2022-12-03T10:34:34.549Z,101272.56
2022-12-03T10:37:15.928Z,101273.13
2022-12-03T10:40:05.165Z,101267.78
2022-12-03T10:42:33.866Z,101262.19
2022-12-03T10:45:20.745Z,101249.25
2022-12-03T10:48:11.909Z,101254.16
2022-12-03T10:50:47.570Z,101232.50
2022-12-03T10:53:14.400Z,101239.63
2022-12-03T10:55:42.712Z,101237.19
2022-12-03T10:58:18.964Z,101235.19
2022-12-03T11:00:45.560Z,101234.16
2022-12-03T11:03:18.595Z,101227.41
2022-12-03T11:05:45.383Z,101218.38
2022-12-03T11:08:17.339Z,101223.84
2022-12-03T11:10:44.074Z,101211.19
2022-12-03T11:13:44.451Z,101212.41
2022-12-03T11:16:12.282Z,101212.56
2022-12-03T11:18:39.037Z,101207.22
2022-12-03T11:21:11.111Z,101208.66
2022-12-03T11:23:46.752Z,101209.41
2022-12-03T11:26:29.106Z,101204.91
2022-12-03T11:28:57.671Z,101210.91
2022-12-03T11:31:36.348Z,101201.75
2022-12-03T11:34:18.327Z,101196.03
2022-12-03T11:37:09.921Z,101194.81
2022-12-03T11:39:51.737Z,101204.31
2022-12-03T11:42:27.442Z,101208.69
2022-12-03T11:45:03.480Z,101206.66
2022-12-03T11:47:58.984Z,101203.53
2022-12-03T11:50:39.828Z,101198.19
2022-12-03T11:53:21.117Z,101193.16
2022-12-03T11:56:06.144Z,101189.13
2022-12-03T11:58:33.670Z,101191.16
2022-12-03T12:01:03.770Z,101180.13
2022-12-03T12:03:35.871Z,101180.66
2022-12-03T12:06:16.912Z,101166.75
2022-12-03T12:08:49.592Z,101171.09
2022-12-03T12:11:18.840Z,101165.63
2022-12-03T12:13:45.256Z,101165.78
2022-12-03T12:16:11.930Z,101155.06
2022-12-03T12:18:45.664Z,101154.47
2022-12-03T12:21:43.636Z,101143.44
2022-12-03T12:24:47.716Z,101139.56
2022-12-03T12:27:46.182Z,101143.91
2022-12-03T12:30:15.377Z,101147.50
2022-12-03T12:32:46.984Z,101141.31
2022-12-03T12:35:14.279Z,101143.47
2022-12-03T12:38:00.137Z,101133.03
2022-12-03T12:40:30.604Z,101136.72
2022-12-03T12:43:08.222Z,101123.53
2022-12-03T12:45:41.412Z,101125.81
2022-12-03T12:48:15.110Z,101125.69
2022-12-03T12:50:47.111Z,101115.94
2022-12-03T12:53:32.464Z,101119.09
2022-12-03T12:56:11.208Z,101121.25
2022-12-03T12:58:38.035Z,101120.06
2022-12-03T13:01:11.180Z,101120.09
2022-12-03T13:03:39.309Z,101120.38
2022-12-03T13:06:06.387Z,101114.63
2022-12-03T13:08:42.450Z,101112.06
2022-12-03T13:11:34.333Z,101103.16
2022-12-03T13:14:23.404Z,101109.91
2022-12-03T13:16:51.948Z,101100.75
2022-12-03T13:19:24.601Z,101100.75
2022-12-03T13:21:53.557Z,101098.88
2022-12-03T13:24:26.148Z,101100.16
2022-12-03T13:26:52.907Z,101103.72
2022-12-03T13:29:22.548Z,101096.03
2022-12-03T13:31:58.558Z,101098.88
2022-12-03T13:34:28.222Z,101099.31
2022-12-03T13:36:58.525Z,101092.56
2022-12-03T13:39:36.463Z,101101.31
2022-12-03T13:42:33.415Z,101096.03
2022-12-03T13:45:02.571Z,101086.25
2022-12-03T13:47:29.097Z,101093.84
2022-12-03T13:50:03.472Z,101086.34
2022-12-03T13:52:32.777Z,101087.38
2022-12-03T13:55:03.328Z,101082.81
2022-12-03T13:57:29.878Z,101070.78
2022-12-03T13:59:56.882Z,101080.53
2022-12-03T14:02:23.721Z,101071.94
2022-12-03T14:04:53.014Z,101074.50
2022-12-03T14:07:22.027Z,101072.66
2022-12-03T14:09:48.531Z,101071.94
2022-12-03T14:12:27.013Z,101071.91
2022-12-03T14:14:53.851Z,101072.34
2022-12-03T14:17:20.639Z,101068.22
2022-12-03T14:19:47.209Z,101066.91
2022-12-03T14:22:13.976Z,101071.50
2022-12-03T14:24:40.642Z,101078.09
2022-12-03T14:27:07.110Z,101073.06
2022-12-03T14:29:33.770Z,101078.97
2022-12-03T14:32:00.474Z,101077.34
2022-12-03T14:34:27.215Z,101082.38
2022-12-03T14:36:53.843Z,101074.78
2022-12-03T14:39:20.753Z,101077.06
2022-12-03T14:42:06.023Z,101076.78
2022-12-03T14:44:32.566Z,101076.47
2022-12-03T14:46:59.105Z,101076.91
2022-12-03T14:49:25.709Z,101080.53
2022-12-03T14:51:53.101Z,101070.94
2022-12-03T14:54:19.765Z,101076.50
2022-12-03T14:56:46.362Z,101079.38
2022-12-03T14:59:13.099Z,101075.19
2022-12-03T15:01:39.872Z,101073.19
2022-12-03T15:04:06.618Z,101078.94
2022-12-03T15:06:33.315Z,101082.34
2022-12-03T15:08:59.853Z,101069.59
2022-12-03T15:11:26.527Z,101078.22
2022-12-03T15:13:53.217Z,101061.03
2022-12-03T15:16:20.219Z,101078.78
2022-12-03T15:18:46.805Z,101071.91
2022-12-03T15:21:13.374Z,101068.25
2022-12-03T15:23:39.954Z,101078.19
2022-12-03T15:26:06.748Z,101071.25
2022-12-03T15:28:33.260Z,101069.44
2022-12-03T15:31:00.002Z,101067.75
2022-12-03T15:33:26.959Z,101069.75
2022-12-03T15:35:53.761Z,101073.47
2022-12-03T15:38:20.456Z,101068.16
2022-12-03T15:40:47.107Z,101072.50
2022-12-03T15:43:13.801Z,101071.78
2022-12-03T15:45:40.538Z,101071.00
2022-12-03T15:48:07.302Z,101067.84
2022-12-03T15:50:39.748Z,101069.00
2022-12-03T15:53:06.809Z,101073.75
2022-12-03T15:55:33.365Z,101059.56
2022-12-03T15:58:00.383Z,101064.00
2022-12-03T16:00:26.883Z,101066.69
2022-12-03T16:02:53.636Z,101066.16
2022-12-03T16:05:20.291Z,101066.56
2022-12-03T16:07:46.991Z,101074.91
2022-12-03T16:10:13.664Z,101073.00
2022-12-03T16:12:40.300Z,101078.44
2022-12-03T16:15:07.351Z,101069.00
2022-12-03T16:17:34.001Z,101070.88
2022-12-03T16:20:00.520Z,101069.88
2022-12-03T16:22:27.045Z,101076.72
2022-12-03T16:24:53.559Z,101081.88
2022-12-03T16:27:24.157Z,101073.84
2022-12-03T16:29:52.765Z,101074.72
2022-12-03T16:32:19.705Z,101075.03
2022-12-03T16:34:46.413Z,101072.00
2022-12-03T16:37:13.189Z,101071.72
2022-12-03T16:39:47.211Z,101066.56
2022-12-03T16:42:17.228Z,101064.09
2022-12-03T16:45:13.416Z,101070.28
2022-12-03T16:47:40.490Z,101067.41
2022-12-03T16:50:10.688Z,101072.25
2022-12-03T16:52:40.963Z,101068.53
2022-12-03T16:55:08.042Z,101061.22
2022-12-03T16:57:34.692Z,101067.25
2022-12-03T17:00:02.782Z,101068.53
2022-12-03T17:02:29.690Z,101066.97
2022-12-03T17:04:56.406Z,101058.38
2022-12-03T17:07:22.952Z,101058.53
2022-12-03T17:09:49.700Z,101056.94
2022-12-03T17:12:16.262Z,101062.63
2022-12-03T17:14:42.808Z,101060.38
2022-12-03T17:17:09.441Z,101064.50
2022-12-03T17:19:35.981Z,101058.16
2022-12-03T17:22:02.615Z,101060.34
2022-12-03T17:24:29.237Z,101048.34
2022-12-03T17:26:55.782Z,101053.78
2022-12-03T17:29:22.408Z,101054.91
2022-12-03T17:31:49.156Z,101056.28
2022-12-03T17:34:16.145Z,101053.53
2022-12-03T17:36:42.713Z,101045.03
2022-12-03T17:39:09.240Z,101048.19
2022-12-03T17:41:35.886Z,101056.63
2022-12-03T17:44:09.637Z,101052.06
2022-12-03T17:46:37.462Z,101046.47
2022-12-03T17:49:04.114Z,101049.50
2022-12-03T17:51:30.806Z,101046.38
2022-12-03T17:53:57.344Z,101037.72
2022-12-03T17:56:23.994Z,101041.88
2022-12-03T17:58:50.466Z,101038.59
2022-12-03T18:01:17.240Z,101034.31
2022-12-03T18:03:44.641Z,101034.84
2022-12-03T18:06:11.371Z,101023.41
2022-12-03T18:08:37.959Z,101018.78
2022-12-03T18:11:04.637Z,101029.69
2022-12-03T18:13:31.215Z,101030.00
2022-12-03T18:15:57.945Z,101023.97
2022-12-03T18:18:24.510Z,101024.50
2022-12-03T18:20:53.087Z,101031.53
2022-12-03T18:23:20.622Z,101019.09
2022-12-03T18:25:47.245Z,101026.53
2022-12-03T18:28:13.825Z,101024.69
2022-12-03T18:30:40.456Z,101021.81
2022-12-03T18:33:07.092Z,101029.41
2022-12-03T18:35:33.782Z,101022.81
2022-12-03T18:38:00.894Z,101030.34
2022-12-03T18:40:27.857Z,101022.94
2022-12-03T18:42:55.949Z,101024.91
2022-12-03T18:45:22.703Z,101023.34
2022-12-03T18:47:49.521Z,101022.81
2022-12-03T18:50:16.280Z,101003.66
2022-12-03T18:52:43.002Z,101023.16
2022-12-03T18:55:17.681Z,101021.38
2022-12-03T18:57:45.017Z,101017.38
2022-12-03T19:00:13.837Z,101019.00
2022-12-03T19:05:27.719Z,101015.69
2022-12-03T19:07:55.549Z,101008.16
2022-12-03T19:10:23.086Z,101015.09
2022-12-03T19:12:49.661Z,101010.84
2022-12-03T19:15:16.585Z,101012.00
2022-12-03T19:17:47.844Z,101017.28
2022-12-03T19:20:15.034Z,101012.41
2022-12-03T19:22:41.548Z,101012.00
2022-12-03T19:25:08.368Z,101022.56
2022-12-03T19:27:34.978Z,101012.66
2022-12-03T19:30:01.584Z,101011.09
2022-12-03T19:32:28.340Z,101019.94
2022-12-03T19:34:55.057Z,101021.38
2022-12-03T19:37:21.759Z,101022.88
2022-12-03T19:39:53.159Z,101019.09
2022-12-03T19:42:19.965Z,101022.19
2022-12-03T19:44:46.685Z,101022.66
2022-12-03T19:47:13.416Z,101023.63
2022-12-03T19:49:40.049Z,101023.53
2022-12-03T19:52:06.660Z,101016.78
2022-12-03T19:54:33.176Z,101012.13
2022-12-03T19:56:59.809Z,101015.91
2022-12-03T19:59:26.408Z,101012.47
2022-12-03T20:01:53.192Z,101012.13
2022-12-03T20:04:20.226Z,101018.19
2022-12-03T20:06:47.460Z,101016.13
2022-12-03T20:09:17.541Z,101009.88
2022-12-03T20:11:45.559Z,101007.97
2022-12-03T20:14:15.268Z,101017.03
2022-12-03T20:16:42.604Z,101008.47
2022-12-03T20:19:12.145Z,101012.34
2022-12-03T20:21:39.890Z,101012.09
2022-12-03T20:24:07.157Z,101009.78
2022-12-03T20:26:34.273Z,101008.31
2022-12-03T20:29:01.474Z,101003.00
2022-12-03T20:31:31.211Z,101005.75
2022-12-03T20:34:00.675Z,100997.31
2022-12-03T20:36:30.021Z,101001.34
2022-12-03T20:38:59.617Z,101004.53
2022-12-03T20:41:26.161Z,101014.81
2022-12-03T20:43:53.711Z,101003.63
2022-12-03T20:46:23.796Z,101004.88
2022-12-03T20:48:50.396Z,101005.72
2022-12-03T20:51:19.438Z,100999.78
2022-12-03T20:53:47.342Z,100999.72
2022-12-03T20:56:34.920Z,100996.84
2022-12-03T20:59:05.117Z,100996.97
2022-12-03T21:01:32.466Z,100991.84
2022-12-03T21:03:59.231Z,100984.97
2022-12-03T21:06:27.938Z,100988.59
2022-12-03T21:08:56.542Z,100989.28
2022-12-03T21:11:26.206Z,100991.22
2022-12-03T21:13:54.327Z,100983.78
2022-12-03T21:16:52.093Z,100989.13
2022-12-03T21:19:13.817Z,100976.78
2022-12-03T21:21:40.347Z,100982.09
2022-12-03T21:24:07.386Z,100974.81
2022-12-03T21:26:33.994Z,100979.84
2022-12-03T21:29:00.625Z,100982.56
2022-12-03T21:31:27.427Z,100969.78
2022-12-03T21:33:55.761Z,100976.97
2022-12-03T21:36:23.772Z,100976.28
2022-12-03T21:38:51.355Z,100968.25
2022-12-03T21:41:18.264Z,100969.84
2022-12-03T21:43:44.935Z,100966.81
2022-12-03T21:47:10.410Z,100961.75
2022-12-03T21:49:01.745Z,100973.81
2022-12-03T21:51:29.526Z,100977.94
2022-12-03T21:53:56.178Z,100978.84
2022-12-03T21:56:23.117Z,100978.16
2022-12-03T21:58:49.963Z,100981.28
2022-12-03T22:01:21.749Z,100989.41
2022-12-03T22:03:49.264Z,100989.56
2022-12-03T22:06:16.472Z,100980.31
2022-12-03T22:08:43.268Z,100979.53
2022-12-03T22:11:13.055Z,100971.53
2022-12-03T22:13:40.838Z,100974.66
2022-12-03T22:16:17.209Z,100972.09
2022-12-03T22:18:44.263Z,100972.50
2022-12-03T22:21:16.278Z,100964.97
2022-12-03T22:23:43.118Z,100967.00
2022-12-03T22:26:15.388Z,100958.69
2022-12-03T22:28:46.708Z,100964.41
2022-12-03T22:31:13.976Z,100959.38
2022-12-03T22:33:40.829Z,100959.19
2022-12-03T22:36:17.996Z,100962.03
2022-12-03T22:38:47.399Z,100952.16
2022-12-03T22:41:14.460Z,100956.28
2022-12-03T22:43:41.469Z,100951.16
2022-12-03T22:46:10.970Z,100949.34
2022-12-03T22:48:38.649Z,100942.91
2022-12-03T22:51:13.915Z,100952.66
2022-12-03T22:53:40.463Z,100950.78
2022-12-03T22:56:07.218Z,100950.94
2022-12-03T22:58:34.095Z,100957.22
2022-12-03T23:01:03.176Z,100949.06
2022-12-03T23:03:30.440Z,100942.78
2022-12-03T23:05:57.134Z,100942.78
2022-12-03T23:08:24.129Z,100946.09
2022-12-03T23:10:52.559Z,100942.91
2022-12-03T23:13:19.961Z,100934.75
2022-12-03T23:15:48.795Z,100939.31
2022-12-03T23:18:16.382Z,100935.91
2022-12-03T23:21:01.612Z,100936.78
2022-12-03T23:23:28.376Z,100930.34
2022-12-03T23:26:03.463Z,100935.78
2022-12-03T23:28:32.274Z,100938.91
2022-12-03T23:30:59.233Z,100936.34
2022-12-03T23:33:26.135Z,100937.47
2022-12-03T23:35:52.950Z,100936.63
2022-12-03T23:38:19.852Z,100936.19
2022-12-03T23:40:48.330Z,100928.91
2022-12-03T23:43:16.169Z,100932.03
2022-12-03T23:45:42.793Z,100917.16
2022-12-03T23:48:10.014Z,100913.69
2022-12-03T23:50:39.626Z,100913.94
2022-12-03T23:53:07.169Z,100906.78
2022-12-03T23:55:34.630Z,100911.84
2022-12-03T23:58:01.424Z,100908.13
